createdAt,value
2016-03-28T12:33:38.286Z,38.51
2016-03-28T12:33:50.880Z,38.59
2016-03-28T12:34:50.883Z,38.39
2016-03-28T12:35:50.901Z,38.1
2016-03-28T12:36:50.904Z,37.72
2016-03-28T12:37:50.922Z,38.2
2016-03-28T12:38:50.894Z,38.49
2016-03-28T12:39:50.927Z,38.49
2016-03-28T12:40:50.946Z,38.3
2016-03-28T12:41:51.133Z,38.79
2016-03-28T12:42:50.919Z,38.78
2016-03-28T12:43:50.909Z,39.16
2016-03-28T12:44:50.881Z,39.45
2016-03-28T12:45:50.903Z,39.25
2016-03-28T12:46:50.894Z,39.64
2016-03-28T12:47:50.876Z,39.73
2016-03-28T12:48:50.890Z,39.92
2016-03-28T12:49:50.920Z,40.48
2016-03-28T12:50:50.886Z,40.58
2016-03-28T12:51:50.947Z,40.09
2016-03-28T12:52:50.964Z,40.67
2016-03-28T12:53:50.901Z,40.86
2016-03-28T12:54:50.918Z,40.09
2016-03-28T12:55:50.904Z,40.58
2016-03-28T12:56:50.904Z,40.59
2016-03-28T12:57:50.906Z,39.64
2016-03-28T12:58:50.909Z,40.59
2016-03-28T12:59:50.912Z,40.41
2016-03-28T13:00:50.930Z,40.21
2016-03-28T13:01:50.932Z,39.92
2016-03-28T13:02:50.966Z,39.92
2016-03-28T13:03:50.937Z,39.73
2016-03-28T13:04:50.970Z,40.04
2016-03-28T13:05:50.973Z,39.56
2016-03-28T13:06:50.960Z,39.08
2016-03-28T13:07:50.994Z,39.56
2016-03-28T13:08:50.980Z,39.56
2016-03-28T13:09:50.983Z,39.75
2016-03-28T13:10:50.986Z,39.47
2016-03-28T13:11:50.973Z,39.75
2016-03-28T13:12:50.991Z,39.65
2016-03-28T13:13:50.994Z,39.56
2016-03-28T13:14:50.996Z,40.04
2016-03-28T13:15:50.999Z,39.85
2016-03-28T13:16:51.018Z,39.65
2016-03-28T13:17:51.020Z,39.65
2016-03-28T13:18:51.023Z,40.33
2016-03-28T13:19:51.026Z,40.61
2016-03-28T13:20:51.029Z,40.52
2016-03-28T13:21:51.031Z,40.52
2016-03-28T13:22:51.049Z,39.65
2016-03-28T13:23:51.051Z,39.65
2016-03-28T13:24:51.054Z,40.23
2016-03-28T13:25:51.057Z,40.14
2016-03-28T13:26:51.059Z,39.75
2016-03-28T13:27:51.062Z,39.75
2016-03-28T13:28:51.081Z,39.65
2016-03-28T13:29:51.067Z,39.39
2016-03-28T13:30:51.086Z,39.65
2016-03-28T13:31:51.105Z,39.77
2016-03-28T13:32:51.091Z,40.06
2016-03-28T13:33:51.110Z,40.06
2016-03-28T13:34:51.113Z,40.06
2016-03-28T13:35:51.116Z,40.16
2016-03-28T13:36:51.133Z,40.61
2016-03-28T13:37:51.136Z,40.42
2016-03-28T13:38:51.139Z,40.14
2016-03-28T13:39:51.141Z,40.42
2016-03-28T13:40:51.144Z,40.61
2016-03-28T13:41:51.194Z,40.04
2016-03-28T13:42:51.243Z,40.71
2016-03-28T13:43:51.168Z,40.71
2016-03-28T13:44:51.171Z,40.61
2016-03-28T13:45:51.190Z,40.71
2016-03-28T13:46:51.176Z,40.81
2016-03-28T13:47:51.179Z,40.9
2016-03-28T13:48:51.212Z,40.61
2016-03-28T13:49:51.200Z,40.61
2016-03-28T13:50:51.218Z,40.61
2016-03-28T13:51:51.205Z,40.06
2016-03-28T13:52:51.209Z,39.68
2016-03-28T13:53:51.226Z,40.06
2016-03-28T13:54:51.229Z,39.77
2016-03-28T13:55:51.248Z,39.77
2016-03-28T13:56:51.265Z,39.48
2016-03-28T13:57:51.253Z,39.58
2016-03-28T13:58:51.270Z,39.39
2016-03-28T13:59:51.273Z,39.1
2016-03-28T14:00:51.265Z,39.1
2016-03-28T14:01:51.268Z,39.48
2016-03-28T14:02:51.271Z,39.77
2016-03-28T14:03:51.288Z,39.77
2016-03-28T14:04:51.307Z,39.77
2016-03-28T14:05:51.310Z,39.77
2016-03-28T14:06:51.313Z,39.39
2016-03-28T14:07:51.301Z,38.74
2016-03-28T14:08:51.319Z,38.83
2016-03-28T14:09:51.322Z,38.74
2016-03-28T14:10:51.339Z,38.83
2016-03-28T14:11:51.342Z,39.29
2016-03-28T14:12:51.345Z,39.29
2016-03-28T14:13:51.348Z,39.29
2016-03-28T14:14:51.366Z,39.48
2016-03-28T14:15:54.385Z,39.77
2016-03-28T14:16:51.528Z,39.97
2016-03-28T14:17:51.733Z,39.77
2016-03-28T14:18:51.377Z,40.06
2016-03-28T14:19:52.021Z,39.77
2016-03-28T14:20:51.399Z,40.44
2016-03-28T14:21:51.402Z,39.58
2016-03-28T14:22:51.404Z,39.58
2016-03-28T14:23:51.407Z,39.97
2016-03-28T14:24:51.425Z,39.87
2016-03-28T14:25:51.427Z,39.77
2016-03-28T14:26:51.430Z,39.48
2016-03-28T14:27:51.433Z,39.58
2016-03-28T14:28:51.435Z,39.58
2016-03-28T14:29:51.470Z,39.68
2016-03-28T14:30:51.473Z,39.77
2016-03-28T14:31:51.521Z,39.7
2016-03-28T14:32:51.665Z,39.87
2016-03-28T14:33:51.543Z,39.58
2016-03-28T14:34:51.529Z,40.06
2016-03-28T14:35:51.532Z,39.29
2016-03-28T14:36:51.567Z,39.68
2016-03-28T14:37:51.570Z,40.64
2016-03-28T14:38:51.572Z,40.73
2016-03-28T14:39:51.590Z,40.44
2016-03-28T14:40:51.578Z,40.64
2016-03-28T14:41:51.580Z,39.87
2016-03-28T14:42:51.598Z,40.06
2016-03-28T14:43:51.601Z,39.58
2016-03-28T14:44:51.619Z,39.01
2016-03-28T14:45:51.638Z,39.22
2016-03-28T14:46:51.609Z,39.12
2016-03-28T14:47:51.643Z,38.35
2016-03-28T14:48:51.614Z,38.35
2016-03-28T14:49:51.617Z,39.29
2016-03-28T14:50:51.682Z,38.81
2016-03-28T14:51:51.655Z,38.72
2016-03-28T14:52:51.641Z,39.39
2016-03-28T14:53:51.660Z,39.48
2016-03-28T14:54:51.677Z,39.58
2016-03-28T14:55:51.649Z,39.48
2016-03-28T14:56:51.699Z,38.81
2016-03-28T14:57:51.686Z,38.53
2016-03-28T14:58:51.751Z,38.53
2016-03-28T14:59:51.644Z,37.76
2016-03-28T15:00:51.632Z,37.38
2016-03-28T15:01:51.634Z,37.95
2016-03-28T15:02:51.652Z,38.14
2016-03-28T15:03:51.686Z,38.53
2016-03-28T15:04:51.673Z,38.53
2016-03-28T15:05:51.660Z,38.43
2016-03-28T15:06:51.662Z,38.7
2016-03-28T15:07:51.743Z,38.22
2016-03-28T15:08:51.700Z,38.22
2016-03-28T15:09:51.686Z,38.62
2016-03-28T15:10:51.736Z,38.72
2016-03-28T15:11:51.708Z,38.81
2016-03-28T15:12:51.710Z,38.53
2016-03-28T15:13:51.713Z,38.53
2016-03-28T15:14:51.700Z,38.81
2016-03-28T15:15:51.719Z,38.43
2016-03-28T15:16:51.908Z,38.91
2016-03-28T15:17:51.724Z,38.81
2016-03-28T15:18:51.742Z,38.72
2016-03-28T15:19:51.729Z,38.53
2016-03-28T15:20:51.747Z,38.43
2016-03-28T15:21:51.766Z,38.62
2016-03-28T15:22:51.768Z,38.24
2016-03-28T15:23:51.771Z,38.34
2016-03-28T15:24:51.789Z,38.05
2016-03-28T15:25:51.791Z,37.66
2016-03-28T15:26:51.794Z,37.66
2016-03-28T15:27:51.797Z,37.11
2016-03-28T15:28:54.082Z,37.11
2016-03-28T15:29:51.802Z,36.9
2016-03-28T15:30:51.805Z,37.01
2016-03-28T15:31:51.808Z,37.49
2016-03-28T15:32:51.810Z,38.35
2016-03-28T15:33:51.829Z,37.78
2016-03-28T15:34:51.816Z,37.78
2016-03-28T15:35:51.865Z,37.87
2016-03-28T15:36:51.853Z,37.68
2016-03-28T15:37:51.856Z,37.87
2016-03-28T15:38:51.873Z,37.78
2016-03-28T15:39:51.861Z,37.78
2016-03-28T15:40:51.864Z,38.16
2016-03-28T15:41:51.866Z,37.97
2016-03-28T15:42:51.884Z,38.14
2016-03-28T15:43:51.872Z,38.14
2016-03-28T15:44:51.890Z,38.34
2016-03-28T15:45:51.892Z,38.34
2016-03-28T15:46:51.911Z,38.72
2016-03-28T15:47:51.945Z,38.24
2016-03-28T15:48:51.916Z,38.24
2016-03-28T15:49:51.950Z,38.72
2016-03-28T15:50:51.938Z,39.2
2016-03-28T15:51:51.924Z,39.29
2016-03-28T15:52:51.927Z,39.18
2016-03-28T15:53:51.930Z,39.39
2016-03-28T15:54:51.963Z,38.62
2016-03-28T15:55:51.966Z,38.81
2016-03-28T15:56:51.969Z,38.62
2016-03-28T15:57:51.971Z,38.24
2016-03-28T15:58:51.974Z,38.24
2016-03-28T15:59:51.962Z,38.24
2016-03-28T16:00:51.996Z,37.57
2016-03-28T16:01:51.982Z,37.85
2016-03-28T16:02:51.985Z,37.76
2016-03-28T16:03:51.988Z,37.85
2016-03-28T16:04:52.021Z,37.95
2016-03-28T16:05:52.009Z,38.62
2016-03-28T16:06:52.027Z,38.62
2016-03-28T16:07:52.014Z,38.62
2016-03-28T16:08:52.032Z,38.7
2016-03-28T16:09:52.035Z,39.08
2016-03-28T16:10:52.037Z,39.28
2016-03-28T16:11:52.040Z,39.18
2016-03-28T16:12:52.043Z,39.37
2016-03-28T16:13:52.061Z,39.37
2016-03-28T16:14:52.064Z,38.89
2016-03-28T16:15:52.083Z,38.79
2016-03-28T16:16:52.070Z,38.6
2016-03-28T16:17:52.072Z,38.6
2016-03-28T16:18:52.075Z,38.7
2016-03-28T16:19:52.109Z,38.79
2016-03-28T16:20:52.096Z,38.43
2016-03-28T16:21:52.099Z,38.81
2016-03-28T16:22:52.102Z,38.32
2016-03-28T16:23:52.119Z,38.62
2016-03-28T16:24:52.122Z,38.41
2016-03-28T16:25:52.125Z,38.81
2016-03-28T16:26:52.112Z,38.51
2016-03-28T16:27:52.177Z,38.79
2016-03-28T16:28:52.149Z,39.29
2016-03-28T16:29:52.135Z,39.08
2016-03-28T16:30:52.170Z,39.37
2016-03-28T16:31:52.157Z,38.7
2016-03-28T16:32:52.176Z,38.6
2016-03-28T16:33:52.178Z,38.03
2016-03-28T16:34:52.165Z,38.51
2016-03-28T16:35:52.168Z,38.7
2016-03-28T16:36:52.045Z,39.18
2016-03-28T16:37:52.189Z,36.98
2016-03-28T16:38:52.254Z,36.79
2016-03-28T16:39:52.195Z,36.21
2016-03-28T16:40:52.212Z,35.63
2016-03-28T16:41:52.246Z,35.63
2016-03-28T16:42:52.217Z,35.53
2016-03-28T16:43:52.048Z,35.73
2016-03-28T16:44:52.270Z,35.63
2016-03-28T16:45:52.258Z,35.16
2016-03-28T16:46:52.293Z,34.96
2016-03-28T16:47:52.263Z,34.29
2016-03-28T16:48:52.298Z,34.48
2016-03-28T16:49:52.268Z,34.39
2016-03-28T16:50:52.303Z,34.1
2016-03-28T16:51:52.305Z,34.2
2016-03-28T16:52:52.261Z,33.72
2016-03-28T16:53:52.326Z,33.14
2016-03-28T16:54:52.267Z,33.14
2016-03-28T16:55:52.270Z,33.14
2016-03-28T16:56:52.273Z,33.04
2016-03-28T16:57:52.290Z,33.14
2016-03-28T16:58:52.325Z,33.14
2016-03-28T16:59:52.328Z,33.04
2016-03-28T17:00:52.345Z,32.86
2016-03-28T17:01:52.333Z,33.24
2016-03-28T17:02:52.303Z,32.95
2016-03-28T17:03:52.322Z,32.76
2016-03-28T17:04:52.340Z,32.67
2016-03-28T17:05:52.344Z,32.67
2016-03-28T17:06:52.330Z,32.86
2016-03-28T17:07:52.349Z,33.24
2016-03-28T17:08:52.555Z,33.04
2016-03-28T17:09:52.338Z,32.86
2016-03-28T17:10:52.341Z,32.57
2016-03-28T17:11:52.344Z,32.76
2016-03-28T17:12:52.362Z,32.95
2016-03-28T17:13:52.380Z,33.04
2016-03-28T17:14:52.383Z,33.24
2016-03-28T17:15:52.385Z,38.41
2016-03-28T17:16:52.389Z,45.96
2016-03-28T17:17:52.376Z,50.24
2016-03-28T17:18:52.379Z,54.02
2016-03-28T17:19:52.397Z,57.24
2016-03-28T17:20:52.899Z,58.93
2016-03-28T17:21:52.230Z,60.81
2016-03-28T17:22:52.405Z,62.43
2016-03-28T17:24:00.589Z,63.16
2016-03-28T17:24:52.425Z,65.07
2016-03-28T17:25:52.412Z,66.6
2016-03-28T17:26:52.477Z,68.57
2016-03-28T17:27:52.433Z,69.62
2016-03-28T17:28:52.420Z,70.86
2016-03-28T17:29:52.454Z,72.48
2016-03-28T17:30:52.441Z,71.81
2016-03-28T17:31:52.444Z,72.38
2016-03-28T17:32:52.446Z,72.38
2016-03-28T17:33:52.449Z,73.21
2016-03-28T17:34:52.436Z,73.3
2016-03-28T17:35:52.439Z,74.54
2016-03-28T17:36:52.441Z,74.35
2016-03-28T17:37:52.460Z,75.59
2016-03-28T17:38:52.463Z,76.5
2016-03-28T17:39:52.465Z,76.88
2016-03-28T17:40:52.452Z,76.59
2016-03-28T17:41:52.440Z,76.88
2016-03-28T17:42:52.457Z,78.03
2016-03-28T17:43:52.445Z,77.64
2016-03-28T17:44:52.448Z,78.88
2016-03-28T17:45:52.482Z,78.78
2016-03-28T17:46:52.484Z,78.31
2016-03-28T17:47:52.456Z,78.98
2016-03-28T17:48:52.458Z,79.64
2016-03-28T17:49:52.461Z,79.83
2016-03-28T17:50:52.464Z,78.41
2016-03-28T17:51:55.450Z,79.17
2016-03-28T17:52:52.436Z,78.88
2016-03-28T17:53:52.314Z,79.36
2016-03-28T17:54:52.458Z,79.64
2016-03-28T17:55:52.477Z,79.46
2016-03-28T17:56:52.464Z,79.46
2016-03-28T17:57:52.450Z,79.32
2016-03-28T17:58:52.453Z,79.7
2016-03-28T17:59:52.488Z,80.94
2016-03-28T18:00:51.741Z,82.56
2016-03-28T18:01:52.493Z,82.46
2016-03-28T18:02:52.480Z,81.7
2016-03-28T18:03:52.483Z,82.18
2016-03-28T18:04:52.454Z,82.65
2016-03-28T18:05:52.457Z,80.84
2016-03-28T18:06:52.474Z,82.46
2016-03-28T18:07:52.462Z,82.27
2016-03-28T18:08:52.480Z,81.7
2016-03-28T18:09:52.482Z,82.27
2016-03-28T18:10:52.470Z,82.75
2016-03-28T18:11:52.473Z,82.08
2016-03-28T18:12:52.491Z,82.27
2016-03-28T18:13:52.478Z,81.98
2016-03-28T18:14:52.462Z,82.75
2016-03-28T18:15:52.484Z,82.27
2016-03-28T18:16:52.468Z,82.75
2016-03-28T18:17:52.470Z,81.32
2016-03-28T18:18:52.489Z,80.36
2016-03-28T18:19:52.492Z,81.7
2016-03-28T18:20:52.495Z,82.08
2016-03-28T18:21:52.497Z,82.37
2016-03-28T18:22:52.484Z,82.37
2016-03-28T18:23:52.487Z,82.27
2016-03-28T18:24:52.490Z,82.27
2016-03-28T18:25:52.492Z,83.51
2016-03-28T18:26:52.480Z,82.93
2016-03-28T18:27:52.498Z,83.22
2016-03-28T18:28:52.500Z,82.61
2016-03-28T18:29:52.488Z,83.09
2016-03-28T18:30:52.506Z,82.8
2016-03-28T18:31:52.477Z,83.28
2016-03-28T18:32:52.480Z,84.7
2016-03-28T18:33:52.499Z,84.23
2016-03-28T18:34:52.501Z,83.85
2016-03-28T18:35:52.504Z,83.94
2016-03-28T18:36:52.350Z,83.28
2016-03-28T18:37:52.337Z,83.47
2016-03-28T18:38:52.496Z,84.33
2016-03-28T18:39:52.498Z,83.47
2016-03-28T18:40:52.518Z,82.51
2016-03-28T18:41:52.488Z,82.32
2016-03-28T18:42:52.476Z,82.9
2016-03-28T18:43:52.478Z,84.33
2016-03-28T18:44:52.481Z,83.18
2016-03-28T18:45:52.515Z,83.28
2016-03-28T18:46:52.486Z,82.32
2016-03-28T18:47:52.489Z,82.61
2016-03-28T18:48:52.492Z,82.8
2016-03-28T18:49:52.495Z,84.33
2016-03-28T18:50:52.498Z,84.56
2016-03-28T18:51:52.515Z,83.28
2016-03-28T18:52:52.518Z,82.75
2016-03-28T18:53:52.489Z,81.7
2016-03-28T18:54:52.492Z,80.65
2016-03-28T18:55:52.495Z,81.51
2016-03-28T18:56:52.497Z,80.27
2016-03-28T18:57:52.484Z,79.03
2016-03-28T18:58:52.534Z,79.89
2016-03-28T18:59:52.490Z,79.8
2016-03-28T19:00:52.508Z,78.75
2016-03-28T19:01:52.527Z,79.51
2016-03-28T19:02:52.513Z,79.6
2016-03-28T19:03:52.533Z,79.32
2016-03-28T19:04:52.519Z,78.75
2016-03-28T19:05:52.521Z,78.46
2016-03-28T19:06:52.509Z,78.65
2016-03-28T19:07:52.508Z,79.22
2016-03-28T19:08:52.510Z,78.27
2016-03-28T19:09:52.514Z,79.13
2016-03-28T19:10:52.500Z,79.22
2016-03-28T19:11:52.519Z,79.41
2016-03-28T19:12:52.506Z,79.22
2016-03-28T19:13:52.539Z,79.13
2016-03-28T19:14:52.527Z,78.85
2016-03-28T19:15:52.529Z,79.03
2016-03-28T19:16:52.532Z,79.13
2016-03-28T19:17:52.534Z,79.32
2016-03-28T19:18:52.538Z,78.46
2016-03-28T19:19:52.524Z,79.13
2016-03-28T19:20:52.543Z,79.51
2016-03-28T19:21:52.514Z,80.27
2016-03-28T19:22:52.548Z,80.65
2016-03-28T19:23:52.535Z,79.8
2016-03-28T19:24:52.522Z,79.6
2016-03-28T19:25:52.540Z,80.08
2016-03-28T19:26:52.527Z,79.8
2016-03-28T19:27:52.546Z,81.41
2016-03-28T19:28:52.532Z,82.93
2016-03-28T19:29:52.536Z,80.55
2016-03-28T19:30:52.538Z,80.46
2016-03-28T19:31:52.525Z,80.75
2016-03-28T19:32:52.544Z,80.46
2016-03-28T19:33:52.531Z,81.41
2016-03-28T19:34:55.549Z,81.7
2016-03-28T19:35:52.552Z,81.51
2016-03-28T19:36:52.539Z,82.37
2016-03-28T19:37:52.557Z,84.56
2016-03-28T19:38:52.545Z,84.36
2016-03-28T19:39:52.531Z,84.08
2016-03-28T19:40:52.549Z,83.51
2016-03-28T19:41:52.568Z,81.41
2016-03-28T19:42:52.539Z,80.65
2016-03-28T19:43:52.572Z,81.03
2016-03-28T19:44:52.561Z,80.75
2016-03-28T19:45:52.563Z,81.6
2016-03-28T19:46:52.566Z,82.08
2016-03-28T19:47:52.553Z,80.27
2016-03-28T19:48:52.555Z,80.18
2016-03-28T19:49:52.542Z,80.18
2016-03-28T19:50:52.577Z,81.41
2016-03-28T19:51:52.579Z,81.7
2016-03-28T19:52:52.582Z,79.13
2016-03-28T19:53:52.569Z,79.6
2016-03-28T19:54:52.603Z,80.36
2016-03-28T19:55:52.558Z,80.36
2016-03-28T19:56:52.577Z,79.8
2016-03-28T19:57:52.596Z,79.7
2016-03-28T19:58:52.566Z,80.46
2016-03-28T19:59:52.585Z,80.36
2016-03-28T20:00:52.571Z,81.6
2016-03-28T20:01:52.574Z,80.75
2016-03-28T20:02:52.577Z,80.36
2016-03-28T20:03:52.596Z,80.55
2016-03-28T20:04:52.567Z,81.32
2016-03-28T20:05:52.570Z,79.8
2016-03-28T20:06:52.557Z,79.7
2016-03-28T20:07:52.590Z,79.41
2016-03-28T20:08:52.578Z,80.46
2016-03-28T20:09:52.596Z,79.89
2016-03-28T20:10:52.583Z,79.6
2016-03-28T20:11:52.586Z,78.75
2016-03-28T20:12:52.589Z,78.94
2016-03-28T20:13:52.592Z,79.8
2016-03-28T20:14:52.579Z,79.89
2016-03-28T20:15:52.581Z,81.89
2016-03-28T20:16:52.630Z,81.41
2016-03-28T20:17:52.603Z,81.7
2016-03-28T20:18:52.589Z,81.7
2016-03-28T20:19:52.607Z,81.6
2016-03-28T20:20:52.594Z,81.32
2016-03-28T20:21:52.597Z,82.27
2016-03-28T20:22:52.616Z,82.65
2016-03-28T20:23:52.619Z,81.89
2016-03-28T20:24:52.605Z,82.18
2016-03-28T20:25:52.592Z,82.08
2016-03-28T20:26:52.596Z,82.37
2016-03-28T20:27:55.613Z,81.6
2016-03-28T20:28:52.601Z,81.6
2016-03-28T20:29:52.587Z,81.37
2016-03-28T20:30:52.606Z,82.42
2016-03-28T20:31:52.609Z,81.41
2016-03-28T20:32:52.596Z,80.27
2016-03-28T20:33:52.614Z,81.51
2016-03-28T20:34:52.617Z,81.37
2016-03-28T20:35:52.604Z,81.7
2016-03-28T20:36:52.606Z,81.76
2016-03-28T20:37:52.609Z,81.7
2016-03-28T20:38:52.611Z,81.32
2016-03-28T20:39:52.615Z,81.51
2016-03-28T20:40:52.601Z,81.41
2016-03-28T20:41:52.620Z,82.46
2016-03-28T20:42:52.607Z,82.08
2016-03-28T20:43:52.609Z,82.46
2016-03-28T20:44:52.612Z,82.37
2016-03-28T20:45:52.631Z,82.37
2016-03-28T20:46:52.680Z,83.03
2016-03-28T20:47:52.666Z,83.51
2016-03-28T20:48:52.654Z,84.52
2016-03-28T20:49:52.641Z,84.04
2016-03-28T20:50:52.613Z,84.56
2016-03-28T20:51:52.616Z,85.32
2016-03-28T20:52:52.618Z,85.47
2016-03-28T20:53:52.605Z,85.37
2016-03-28T20:54:52.639Z,85.08
2016-03-28T20:55:52.626Z,84.17
2016-03-28T20:56:52.644Z,84.42
2016-03-28T20:57:52.632Z,85.66
2016-03-28T20:58:52.602Z,85.08
2016-03-28T20:59:52.653Z,84.99
2016-03-28T21:00:52.640Z,85.28
2016-03-28T21:01:52.673Z,84.8
2016-03-28T21:02:52.630Z,83.75
2016-03-28T21:03:52.601Z,83.75
2016-03-28T21:04:52.666Z,81.28
2016-03-28T21:05:52.637Z,81.85
2016-03-28T21:06:52.624Z,81.37
2016-03-28T21:07:52.658Z,81.47
2016-03-28T21:08:52.677Z,81.28
2016-03-28T21:09:52.679Z,80.8
2016-03-28T21:10:52.650Z,80.13
2016-03-28T21:11:52.653Z,80.71
2016-03-28T21:12:52.625Z,80.8
2016-03-28T21:13:52.643Z,80.42
2016-03-28T21:14:52.631Z,80.71
2016-03-28T21:15:52.617Z,80.61
2016-03-28T21:16:52.620Z,80.71
2016-03-28T21:17:52.608Z,79.57
2016-03-28T21:18:52.641Z,79.38
2016-03-28T21:19:52.628Z,79.85
2016-03-28T21:20:52.599Z,79.57
2016-03-28T21:21:52.619Z,80.33
2016-03-28T21:22:52.621Z,80.61
2016-03-28T21:23:52.607Z,81.37
2016-03-28T21:24:52.829Z,80.99
2016-03-28T21:25:52.613Z,80.52
2016-03-28T21:26:52.616Z,81.09
2016-03-28T21:27:52.619Z,81.47
2016-03-28T21:28:52.637Z,81.28
2016-03-28T21:29:52.936Z,82.32
2016-03-28T21:30:52.627Z,81.76
2016-03-28T21:31:52.629Z,81.66
2016-03-28T21:32:52.615Z,82.32
2016-03-28T21:33:52.618Z,81.37
2016-03-28T21:34:52.840Z,81.95
2016-03-28T21:35:52.624Z,81.56
2016-03-28T21:36:52.627Z,82.32
2016-03-28T21:37:52.629Z,82.51
2016-03-28T21:38:52.617Z,82.42
2016-03-28T21:39:52.901Z,82.42
2016-03-28T21:40:52.622Z,82.8
2016-03-28T21:41:52.609Z,83.09
2016-03-28T21:42:52.642Z,83.75
2016-03-28T21:43:52.631Z,83.85
2016-03-28T21:44:52.633Z,84
2016-03-28T21:45:52.636Z,85.08
2016-03-28T21:46:52.623Z,85.28
2016-03-28T21:47:52.641Z,84.61
2016-03-28T21:48:52.623Z,84.47
2016-03-28T21:49:52.617Z,85.04
2016-03-28T21:50:52.814Z,84.76
2016-03-28T21:51:52.604Z,85.14
2016-03-28T21:52:52.582Z,85.8
2016-03-28T21:53:52.578Z,86.09
2016-03-28T21:54:52.578Z,86.47
2016-03-28T21:55:52.562Z,86.66
2016-03-28T21:56:52.576Z,86.94
2016-03-28T21:57:52.577Z,87.23
2016-03-28T21:58:52.562Z,87.13
2016-03-28T21:59:52.578Z,87.61
2016-03-28T22:00:52.579Z,87.71
2016-03-28T22:01:52.566Z,87.71
2016-03-28T22:02:52.583Z,87.71
2016-03-28T22:03:52.554Z,87.8
2016-03-28T22:04:52.557Z,88.09
2016-03-28T22:05:52.575Z,88.09
2016-03-28T22:06:52.576Z,87.9
2016-03-28T22:07:52.860Z,88.28
2016-03-28T22:08:52.566Z,88.56
2016-03-28T22:09:52.553Z,88.37
2016-03-28T22:10:52.570Z,87.99
2016-03-28T22:11:52.572Z,87.71
2016-03-28T22:12:52.559Z,87.71
2016-03-28T22:13:52.578Z,87.61
2016-03-28T22:14:52.565Z,87.71
2016-03-28T22:15:52.583Z,88.09
2016-03-28T22:16:52.554Z,88.46
2016-03-28T22:17:52.557Z,87.61
2016-03-28T22:18:52.559Z,88.46
2016-03-28T22:19:52.562Z,88.18
2016-03-28T22:20:52.564Z,87.9
2016-03-28T22:21:52.552Z,87.8
2016-03-28T22:22:52.570Z,87.99
2016-03-28T22:23:52.557Z,87.9
2016-03-28T22:24:52.560Z,87.9
2016-03-28T22:25:52.547Z,88.09
2016-03-28T22:26:52.581Z,88.09
2016-03-28T22:27:52.553Z,88.18
2016-03-28T22:28:52.570Z,88.28
2016-03-28T22:29:52.558Z,88.85
2016-03-28T22:30:52.561Z,88.28
2016-03-28T22:31:52.548Z,88.56
2016-03-28T22:32:52.566Z,88.66
2016-03-28T22:33:52.569Z,88.46
2016-03-28T22:34:52.556Z,88.46
2016-03-28T22:35:52.558Z,88.85
2016-03-28T22:36:52.561Z,88.56
2016-03-28T22:37:52.580Z,88.56
2016-03-28T22:38:52.566Z,89.04
2016-03-28T22:39:52.569Z,88.75
2016-03-28T22:40:52.572Z,89.04
2016-03-28T22:41:52.574Z,89.23
2016-03-28T22:42:52.593Z,89.23
2016-03-28T22:43:52.564Z,89.8
2016-03-28T22:44:52.566Z,89.61
2016-03-28T22:45:52.554Z,89.61
2016-03-28T22:46:52.572Z,89.42
2016-03-28T22:47:52.559Z,89.89
2016-03-28T22:48:52.562Z,89.99
2016-03-28T22:49:52.564Z,89.99
2016-03-28T22:50:52.568Z,89.8
2016-03-28T22:51:52.554Z,89.89
2016-03-28T22:52:52.573Z,89.42
2016-03-28T22:53:52.560Z,89.61
2016-03-28T22:54:52.562Z,89.51
2016-03-28T22:55:52.425Z,89.61
2016-03-28T22:56:52.568Z,89.32
2016-03-28T22:57:52.555Z,89.61
2016-03-28T22:58:52.558Z,89.61
2016-03-28T22:59:52.560Z,89.89
2016-03-28T23:00:52.579Z,90.47
2016-03-28T23:01:52.550Z,90.28
2016-03-28T23:02:52.553Z,90.18
2016-03-28T23:03:52.572Z,90.42
2016-03-28T23:04:52.558Z,89.61
2016-03-28T23:05:52.561Z,89.61
2016-03-28T23:06:52.564Z,89.61
2016-03-28T23:07:52.550Z,89.8
2016-03-28T23:08:52.569Z,89.7
2016-03-28T23:09:52.556Z,89.7
2016-03-28T23:10:52.575Z,89.7
2016-03-28T23:11:52.561Z,90.47
2016-03-28T23:12:52.564Z,90.18
2016-03-28T23:13:52.566Z,89.7
2016-03-28T23:14:52.554Z,90.08
2016-03-28T23:15:52.556Z,89.51
2016-03-28T23:16:52.560Z,89.8
2016-03-28T23:17:52.562Z,89.7
2016-03-28T23:18:52.564Z,89.7
2016-03-28T23:19:52.567Z,89.89
2016-03-28T23:20:52.570Z,90.47
2016-03-28T23:21:52.573Z,90.28
2016-03-28T23:22:52.591Z,90.56
2016-03-28T23:23:52.562Z,91.03
2016-03-28T23:24:52.581Z,91.22
2016-03-28T23:25:52.583Z,91.42
2016-03-28T23:26:52.555Z,89.8
2016-03-28T23:27:52.620Z,89.61
2016-03-28T23:28:52.575Z,90.47
2016-03-28T23:29:52.563Z,90.18
2016-03-28T23:30:52.565Z,90.47
2016-03-28T23:31:52.568Z,90.47
2016-03-28T23:32:52.587Z,90.75
2016-03-28T23:33:52.573Z,90.37
2016-03-28T23:34:52.576Z,89.99
2016-03-28T23:35:52.578Z,89.7
2016-03-28T23:36:52.598Z,89.61
2016-03-28T23:37:52.584Z,89.32
2016-03-28T23:38:52.571Z,88.56
2016-03-28T23:39:52.574Z,88.56
2016-03-28T23:40:52.592Z,88.46
2016-03-28T23:41:52.579Z,88.09
2016-03-28T23:42:52.583Z,87.42
2016-03-28T23:43:52.569Z,86.28
2016-03-28T23:44:52.557Z,86.66
2016-03-28T23:45:52.559Z,87.13
2016-03-28T23:46:52.577Z,86.57
2016-03-28T23:47:52.580Z,87.23
2016-03-28T23:48:52.582Z,86.47
2016-03-28T23:49:52.585Z,85.99
2016-03-28T23:50:52.573Z,85.42
2016-03-28T23:51:52.575Z,84.47
2016-03-28T23:52:52.593Z,83.71
2016-03-28T23:53:52.596Z,83.04
2016-03-28T23:54:52.584Z,83.42
2016-03-28T23:55:52.586Z,83.04
2016-03-28T23:56:52.589Z,82.48
2016-03-28T23:57:52.559Z,80.19
2016-03-28T23:58:52.562Z,80.66
2016-03-28T23:59:52.597Z,80.95
